KMHE/MHE METAR and TAF weather

Enter ICAO airport designator
Station Type Date Time Source
KMHE METAR 2018/12/19 02:53 UTC NOAA

KMHE 190253Z AUTO 05004KT 10SM CLR M01/M03 A2977 RMK AO2 SLP095 T10111028 56012


Station Type Date Time Source
KMHE Decoded METAR 2018/12/19 02:53 UTC NOAA

MITCHELL MUNICIPAL AIRPORT, SD, United States (KMHE) 43-46N 98-02W
Dec 18, 2018 - 09:53 PM EST / 2018.12.19 0253 UTC
Wind: from the NE (050 degrees) at 5 MPH (4 KT):0
Visibility: 10 mile(s):0
Sky conditions: clear
Temperature: 30.0 F (-1.1 C)
Windchill: 24 F (-4 C):1
Dew Point: 27.0 F (-2.8 C)
Relative Humidity: 88%
Pressure (altimeter): 29.77 in. Hg (1008 hPa)
Pressure tendency: 0.04 inches (1.2 hPa) lower than three hours ago
ob: KMHE 190253Z AUTO 05004KT 10SM CLR M01/M03 A2977 RMK AO2 SLP095 T10111028 56012
cycle: 3

Station Type Date Time Source
KMHE TAF UTC NOAA

Error!


Example: see airport list